Time;durP1;ratioP1;P1;durP2;ratioP2;P2;SDS_P1;SDS_P2;PMS_P1;PMS_P2;Temp;Humidity;BMP_temperature;BMP_pressure;BME280_temperature;BME280_humidity;BME280_pressure;Samples;Min_cycle;Max_cycle;Signal;HPM_P1;HPM_P2
2022/01/12 00:01:38;;;;;;;4.72;4.18;;;17.30;52.80;;;;;;5031399;28;20653;-59
2022/01/12 00:04:04;;;;;;;4.97;4.40;;;17.30;52.90;;;;;;5031721;28;20184;-59
2022/01/12 00:06:29;;;;;;;4.68;4.20;;;17.30;52.90;;;;;;5030474;28;20247;-58
2022/01/12 00:08:55;;;;;;;5.88;4.40;;;17.30;53.00;;;;;;5031738;28;20294;-59
2022/01/12 00:11:22;;;;;;;6.93;4.82;;;17.30;53.00;;;;;;5031369;28;20619;-60
2022/01/12 00:13:51;;;;;;;4.97;4.50;;;17.20;52.90;;;;;;5031184;28;20183;-61
2022/01/12 00:16:17;;;;;;;5.57;4.35;;;17.20;52.90;;;;;;5031538;28;20208;-60
2022/01/12 00:18:44;;;;;;;4.47;4.07;;;17.20;52.90;;;;;;5031314;28;20609;-60
2022/01/12 00:21:09;;;;;;;5.03;4.57;;;17.20;52.90;;;;;;5031169;28;20203;-60
2022/01/12 00:23:35;;;;;;;5.57;4.10;;;17.20;52.90;;;;;;5031827;28;20638;-61
2022/01/12 00:26:07;;;;;;;4.93;4.47;;;17.20;53.00;;;;;;5031580;28;20262;-60
2022/01/12 00:34:02;;;;;;;5.28;4.38;;;17.10;52.90;;;;;;5030850;28;20187;-59
2022/01/12 00:36:29;;;;;;;4.88;4.30;;;17.10;52.90;;;;;;5031183;28;20172;-60
2022/01/12 00:38:54;;;;;;;5.45;4.90;;;17.10;52.90;;;;;;5031328;28;20180;-59
2022/01/12 00:41:20;;;;;;;4.95;4.43;;;17.10;53.00;;;;;;5030725;28;20207;-59
2022/01/12 00:43:48;;;;;;;4.85;4.32;;;17.10;52.90;;;;;;5031043;28;20254;-59
2022/01/12 00:46:14;;;;;;;4.63;4.22;;;17.10;53.00;;;;;;5031577;28;20175;-59
2022/01/12 00:48:40;;;;;;;5.35;4.85;;;17.10;52.90;;;;;;5033655;28;20262;-58
2022/01/12 00:51:06;;;;;;;5.38;4.80;;;17.00;52.90;;;;;;5035268;28;20251;-59
2022/01/12 00:53:31;;;;;;;4.63;4.25;;;17.00;52.90;;;;;;5034747;28;20618;-59
2022/01/12 00:55:56;;;;;;;5.80;4.70;;;17.00;52.90;;;;;;5034154;28;20179;-59
2022/01/12 00:58:22;;;;;;;4.93;4.25;;;17.00;52.90;;;;;;5034570;28;20632;-58
2022/01/12 01:00:47;;;;;;;5.40;4.90;;;17.00;52.90;;;;;;5034669;28;20270;-59
2022/01/12 01:03:13;;;;;;;5.10;4.60;;;17.00;52.80;;;;;;5034438;28;20183;-59
2022/01/12 01:05:42;;;;;;;4.40;4.00;;;17.00;52.80;;;;;;5034573;28;20191;-60
2022/01/12 01:08:07;;;;;;;4.97;4.50;;;17.00;52.90;;;;;;5034749;28;20176;-59
2022/01/12 01:10:45;;;;;;;6.03;4.50;;;16.90;52.80;;;;;;5033755;28;20685;-58
2022/01/12 01:13:11;;;;;;;4.90;4.45;;;16.90;52.80;;;;;;5034622;28;20532;-60
2022/01/12 01:15:58;;;;;;;5.63;4.43;;;16.90;52.80;;;;;;5033551;28;20184;-60
2022/01/12 01:26:38;;;;;;;5.10;4.68;;;16.90;52.80;;;;;;5034158;28;20206;-60
2022/01/12 01:29:04;;;;;;;5.20;4.70;;;16.90;52.80;;;;;;5034384;28;20207;-59
2022/01/12 01:31:36;;;;;;;4.97;4.20;;;16.80;52.80;;;;;;5033314;28;20192;-60
2022/01/12 01:34:10;;;;;;;5.15;4.60;;;16.90;52.90;;;;;;5034316;28;20194;-60
2022/01/12 01:36:38;;;;;;;6.03;4.65;;;16.80;52.80;;;;;;5033991;28;20167;-60
2022/01/12 01:39:05;;;;;;;5.40;4.97;;;16.90;52.90;;;;;;5033359;28;20556;-60
2022/01/12 01:41:31;;;;;;;5.15;4.65;;;16.80;52.80;;;;;;5033779;28;20193;-59
2022/01/12 01:54:50;;;;;;;4.53;4.13;;;16.80;52.80;;;;;;5032960;28;20610;-60
2022/01/12 01:57:15;;;;;;;5.15;4.65;;;16.80;52.80;;;;;;5033828;28;20168;-60
2022/01/12 01:59:41;;;;;;;4.50;4.03;;;16.70;52.80;;;;;;5032535;28;20198;-60
2022/01/12 02:02:06;;;;;;;5.05;4.63;;;16.70;52.70;;;;;;5033816;28;20229;-59
2022/01/12 02:04:32;;;;;;;5.43;4.72;;;16.70;52.70;;;;;;5033321;28;20180;-59
2022/01/12 02:06:58;;;;;;;5.68;4.80;;;16.70;52.80;;;;;;5032989;28;20179;-59
2022/01/12 02:09:25;;;;;;;4.47;4.05;;;16.70;52.70;;;;;;5033260;28;20242;-60
2022/01/12 02:11:53;;;;;;;5.72;4.80;;;16.70;52.80;;;;;;5033470;28;20230;-61
2022/01/12 02:14:19;;;;;;;5.20;4.53;;;16.70;52.80;;;;;;5033565;28;20187;-61
2022/01/12 02:16:55;;;;;;;5.05;4.65;;;16.70;52.80;;;;;;5033601;28;20730;-61
2022/01/12 02:36:24;;;;;;;4.65;4.25;;;16.60;52.70;;;;;;5033116;28;20179;-60
2022/01/12 02:41:33;;;;;;;4.93;4.43;;;16.60;52.80;;;;;;5032313;28;20170;-60
2022/01/12 02:54:44;;;;;;;4.70;4.30;;;16.50;52.80;;;;;;5061307;28;20190;-60
2022/01/12 02:57:09;;;;;;;4.85;4.45;;;16.50;52.70;;;;;;5052357;28;20281;-58
2022/01/12 02:59:36;;;;;;;4.97;4.47;;;16.50;52.70;;;;;;5052388;28;20183;-60
2022/01/12 03:02:27;;;;;;;5.10;4.55;;;16.50;52.80;;;;;;5051926;28;20535;-59
2022/01/12 03:05:13;;;;;;;4.85;4.45;;;16.50;52.70;;;;;;5032636;28;20209;-59
2022/01/12 03:07:39;;;;;;;5.25;4.80;;;16.50;52.80;;;;;;5032217;28;20168;-60
2022/01/12 03:10:06;;;;;;;5.20;4.70;;;16.50;52.80;;;;;;5031056;28;20216;-60
2022/01/12 03:12:31;;;;;;;4.72;4.32;;;16.50;52.90;;;;;;5032157;28;20167;-61
2022/01/12 03:14:57;;;;;;;5.20;4.80;;;16.50;52.90;;;;;;5032608;28;20233;-61
2022/01/12 03:17:22;;;;;;;5.32;4.78;;;16.50;52.90;;;;;;5045201;28;20187;-61
2022/01/12 03:19:48;;;;;;;4.97;4.25;;;16.40;52.80;;;;;;5052261;28;20382;-61
2022/01/12 03:22:13;;;;;;;4.88;4.38;;;16.50;52.90;;;;;;5051399;28;20171;-60
2022/01/12 03:24:39;;;;;;;6.05;5.45;;;16.50;53.00;;;;;;5051843;28;20179;-60
2022/01/12 03:27:06;;;;;;;5.65;4.65;;;16.50;52.90;;;;;;5052267;28;20236;-62
2022/01/12 03:29:31;;;;;;;5.07;4.68;;;16.40;52.90;;;;;;5051180;28;20332;-60
2022/01/12 03:31:58;;;;;;;5.40;4.90;;;16.40;52.90;;;;;;5052305;28;20200;-59
2022/01/12 03:39:33;;;;;;;5.18;4.65;;;16.40;53.00;;;;;;5051735;28;20186;-60
2022/01/12 03:41:58;;;;;;;5.05;4.55;;;16.40;52.90;;;;;;5051861;28;20540;-60
2022/01/12 03:44:24;;;;;;;5.97;5.38;;;16.40;53.00;;;;;;5050851;28;20229;-60
2022/01/12 03:46:50;;;;;;;5.57;5.07;;;16.40;52.90;;;;;;5051750;28;20187;-60
2022/01/12 03:49:16;;;;;;;5.30;4.82;;;16.40;53.00;;;;;;5051626;28;20230;-60
2022/01/12 03:51:41;;;;;;;5.45;4.95;;;16.30;52.90;;;;;;5050960;28;20175;-61
2022/01/12 03:54:07;;;;;;;6.22;5.22;;;16.40;52.90;;;;;;5051639;28;20594;-61
2022/01/12 03:56:32;;;;;;;5.50;5.03;;;16.30;52.80;;;;;;5051452;28;20171;-60
2022/01/12 03:58:58;;;;;;;6.13;5.63;;;16.30;52.90;;;;;;5051169;28;20255;-60
2022/01/12 04:01:23;;;;;;;6.68;5.45;;;16.30;52.90;;;;;;5051446;28;20198;-59
2022/01/12 04:03:59;;;;;;;5.68;5.18;;;16.30;52.90;;;;;;5051675;28;20179;-59
2022/01/12 04:09:09;;;;;;;5.97;5.38;;;16.30;52.90;;;;;;5052002;28;20217;-59
2022/01/12 04:11:34;;;;;;;5.20;4.70;;;16.30;52.90;;;;;;5050697;28;20167;-59
2022/01/12 04:14:00;;;;;;;5.40;4.90;;;16.30;53.00;;;;;;5051675;28;20224;-60
2022/01/12 04:16:25;;;;;;;5.10;4.60;;;16.30;53.00;;;;;;5051206;28;20190;-60
2022/01/12 04:18:51;;;;;;;5.80;5.30;;;16.30;53.00;;;;;;5050834;28;20167;-60
2022/01/12 04:21:23;;;;;;;5.68;5.15;;;16.30;52.90;;;;;;5053026;28;20483;-60
2022/01/12 04:23:49;;;;;;;4.90;4.50;;;16.20;52.90;;;;;;5055943;28;20237;-60
2022/01/12 04:26:15;;;;;;;5.95;5.35;;;16.30;53.00;;;;;;5054895;28;20179;-58
2022/01/12 04:28:42;;;;;;;5.70;5.10;;;16.20;52.90;;;;;;5055176;28;20210;-60
2022/01/12 04:31:08;;;;;;;5.70;5.20;;;16.30;53.00;;;;;;5055466;28;20250;-58
2022/01/12 04:33:35;;;;;;;5.45;4.95;;;16.20;52.90;;;;;;5054553;28;20267;-59
2022/01/12 04:36:00;;;;;;;5.68;5.05;;;16.20;52.90;;;;;;5055586;28;20184;-59
2022/01/12 04:38:28;;;;;;;5.85;5.35;;;16.20;52.90;;;;;;5055097;28;20232;-60
2022/01/12 04:40:57;;;;;;;4.95;4.55;;;16.20;52.90;;;;;;5054651;28;20174;-59
2022/01/12 04:43:23;;;;;;;4.85;4.45;;;16.20;52.90;;;;;;5055401;28;20183;-61
2022/01/12 04:50:40;;;;;;;5.70;5.13;;;16.20;53.00;;;;;;5055084;28;20183;-59
2022/01/12 04:53:05;;;;;;;5.63;5.13;;;16.20;53.00;;;;;;5055129;28;20182;-59
2022/01/12 04:55:31;;;;;;;5.68;5.18;;;16.20;53.00;;;;;;5054129;28;20182;-61
2022/01/12 04:57:56;;;;;;;6.10;5.50;;;16.20;53.00;;;;;;5054946;28;20195;-60
2022/01/12 05:00:22;;;;;;;6.07;5.55;;;16.20;53.00;;;;;;5055276;28;20183;-59
2022/01/12 05:08:34;;;;;;;7.55;5.20;;;16.10;52.90;;;;;;5053895;28;20177;-59
2022/01/12 05:13:46;;;;;;;6.28;5.63;;;16.10;53.00;;;;;;5054880;28;20257;-63
2022/01/12 05:16:12;;;;;;;5.60;5.13;;;16.10;53.00;;;;;;5053955;28;20656;-60
2022/01/12 05:18:37;;;;;;;6.28;5.68;;;16.10;53.00;;;;;;5054343;28;20246;-60
2022/01/12 05:21:05;;;;;;;6.10;5.50;;;16.10;52.90;;;;;;5054487;28;20244;-60
2022/01/12 05:23:31;;;;;;;5.97;5.35;;;16.10;53.30;;;;;;5053654;28;20182;-60
2022/01/12 05:25:57;;;;;;;5.53;5.13;;;16.10;53.00;;;;;;5054547;28;20175;-59
2022/01/12 05:28:23;;;;;;;6.10;5.50;;;16.00;53.00;;;;;;5054092;28;20543;-59
2022/01/12 05:30:48;;;;;;;5.53;5.03;;;16.00;53.00;;;;;;5053700;28;20184;-59
2022/01/12 05:33:14;;;;;;;5.78;5.28;;;16.00;53.00;;;;;;5053515;28;20203;-59
2022/01/12 05:35:41;;;;;;;5.72;5.22;;;16.00;53.00;;;;;;5053888;28;20182;-60
2022/01/12 05:38:08;;;;;;;5.63;5.13;;;16.00;53.00;;;;;;5053520;28;20522;-61
2022/01/12 05:40:34;;;;;;;6.25;5.65;;;16.00;53.00;;;;;;5054163;28;20186;-59
2022/01/12 05:43:00;;;;;;;6.50;5.90;;;16.00;53.00;;;;;;5053599;28;20175;-60
2022/01/12 05:45:30;;;;;;;5.85;5.35;;;16.00;53.00;;;;;;5053874;28;20256;-59
2022/01/12 05:50:21;;;;;;;6.20;5.60;;;16.00;53.00;;;;;;5053246;28;20207;-61
2022/01/12 05:52:47;;;;;;;6.35;5.68;;;16.00;53.10;;;;;;5054086;28;20336;-59
2022/01/12 05:55:13;;;;;;;5.72;5.22;;;16.00;53.10;;;;;;5054050;28;20171;-60
2022/01/12 05:57:41;;;;;;;5.57;5.03;;;16.00;53.10;;;;;;5051447;28;20193;-60
2022/01/12 06:00:11;;;;;;;6.50;5.40;;;16.00;53.10;;;;;;5053964;28;20491;-59
2022/01/12 06:02:37;;;;;;;5.25;4.75;;;16.00;53.20;;;;;;5053307;28;20693;-59
2022/01/12 06:05:03;;;;;;;5.85;5.35;;;16.00;53.20;;;;;;5052919;28;20261;-57
2022/01/12 06:07:28;;;;;;;5.95;5.45;;;15.90;53.10;;;;;;5053521;28;20171;-59
2022/01/12 06:09:54;;;;;;;5.80;5.20;;;15.90;53.10;;;;;;5053678;28;20221;-60
2022/01/12 06:12:19;;;;;;;5.40;4.90;;;15.90;53.20;;;;;;5052643;28;20184;-59
2022/01/12 06:14:45;;;;;;;6.13;5.53;;;15.90;53.20;;;;;;5053506;28;20175;-60
2022/01/12 06:17:11;;;;;;;5.97;5.45;;;15.90;53.30;;;;;;5053401;28;20179;-59
2022/01/12 06:19:36;;;;;;;6.28;5.68;;;15.90;53.20;;;;;;5052605;28;20190;-60
2022/01/12 06:22:02;;;;;;;5.85;5.30;;;15.90;53.20;;;;;;5053290;28;20248;-60
2022/01/12 06:24:28;;;;;;;5.80;5.30;;;15.90;53.20;;;;;;5053096;28;20210;-59
2022/01/12 06:26:55;;;;;;;5.63;5.15;;;15.90;53.20;;;;;;5052564;28;20183;-59
2022/01/12 06:31:54;;;;;;;6.55;5.95;;;15.90;53.30;;;;;;5053165;28;20685;-61
2022/01/12 06:34:19;;;;;;;6.85;6.25;;;15.90;53.20;;;;;;5052314;28;20539;-59
2022/01/12 06:36:45;;;;;;;5.97;5.47;;;15.90;53.20;;;;;;5053012;28;20582;-60
2022/01/12 06:39:13;;;;;;;6.20;5.68;;;15.90;53.20;;;;;;5052351;28;20258;-59
2022/01/12 06:41:39;;;;;;;5.70;5.20;;;15.90;53.20;;;;;;5052717;28;20279;-59
2022/01/12 06:44:05;;;;;;;6.88;6.28;;;15.80;53.20;;;;;;5053076;28;20202;-59
2022/01/12 06:46:31;;;;;;;5.85;5.35;;;15.80;53.10;;;;;;5051878;28;20471;-60
2022/01/12 06:48:57;;;;;;;5.90;5.40;;;15.80;53.20;;;;;;5052546;28;20231;-60
2022/01/12 06:51:23;;;;;;;5.95;5.45;;;15.80;53.20;;;;;;5052504;28;20652;-60
2022/01/12 06:53:49;;;;;;;6.15;5.55;;;15.80;53.20;;;;;;5051950;28;20198;-60
2022/01/12 06:56:17;;;;;;;6.05;5.55;;;15.80;53.20;;;;;;5052743;28;20266;-58
2022/01/12 06:58:43;;;;;;;5.70;5.20;;;15.80;53.20;;;;;;5052223;28;20179;-58
2022/01/12 07:01:09;;;;;;;6.55;5.70;;;15.80;53.20;;;;;;5051784;28;20186;-58
2022/01/12 07:03:34;;;;;;;5.95;5.45;;;15.80;53.30;;;;;;5052234;28;20534;-59
2022/01/12 07:06:00;;;;;;;5.57;5.07;;;15.90;53.40;;;;;;5052464;28;20167;-59
2022/01/12 07:08:25;;;;;;;6.28;5.68;;;15.90;53.30;;;;;;5051398;28;20256;-58
2022/01/12 07:10:51;;;;;;;5.93;5.35;;;15.90;53.30;;;;;;5051996;28;20262;-60
2022/01/12 07:13:16;;;;;;;5.13;4.68;;;15.90;53.30;;;;;;5052238;28;20210;-61
2022/01/12 07:15:42;;;;;;;5.30;4.80;;;16.00;53.40;;;;;;5051213;28;20652;-61
2022/01/12 07:18:08;;;;;;;5.53;5.03;;;16.20;53.40;;;;;;5052028;28;20218;-60
2022/01/12 07:20:34;;;;;;;4.97;4.57;;;16.30;53.30;;;;;;5051914;28;20576;-60
2022/01/12 07:22:59;;;;;;;5.05;4.60;;;16.50;53.10;;;;;;5051437;28;20663;-59
2022/01/12 07:25:28;;;;;;;4.75;4.35;;;16.60;52.90;;;;;;5052085;28;20613;-59
2022/01/12 07:27:56;;;;;;;4.20;3.90;;;16.70;52.60;;;;;;5052539;28;20174;-62
2022/01/12 07:30:22;;;;;;;4.70;4.30;;;16.90;52.50;;;;;;5051221;28;20235;-58
2022/01/12 07:32:48;;;;;;;4.68;4.28;;;17.00;52.30;;;;;;5052139;28;20229;-59
2022/01/12 07:35:14;;;;;;;5.07;4.68;;;17.10;52.10;;;;;;5052292;28;20179;-60
2022/01/12 07:37:39;;;;;;;5.43;4.20;;;17.30;51.90;;;;;;5051089;28;20171;-61
2022/01/12 07:40:10;;;;;;;4.30;3.95;;;17.50;51.70;;;;;;5051954;28;20182;-61
2022/01/12 07:42:36;;;;;;;4.82;4.32;;;17.60;51.40;;;;;;5050777;28;20261;-58
2022/01/12 07:45:01;;;;;;;4.10;3.80;;;17.80;51.20;;;;;;5051652;28;20329;-59
2022/01/12 07:47:31;;;;;;;4.43;4.03;;;18.00;50.90;;;;;;5051390;28;20221;-63
2022/01/12 07:49:58;;;;;;;4.47;4.18;;;18.10;50.70;;;;;;5051264;28;20214;-59
2022/01/12 07:52:24;;;;;;;4.43;4.03;;;18.10;50.50;;;;;;5051556;28;20167;-58
2022/01/12 07:54:49;;;;;;;4.63;4.22;;;18.00;50.70;;;;;;5051800;28;20179;-60
2022/01/12 07:57:15;;;;;;;4.55;4.15;;;17.90;51.00;;;;;;5049913;28;20175;-60
2022/01/12 07:59:41;;;;;;;4.50;4.10;;;17.90;51.20;;;;;;5051443;28;20179;-60
2022/01/12 08:02:06;;;;;;;4.78;4.38;;;17.90;51.20;;;;;;5051846;28;20661;-60
2022/01/12 08:04:35;;;;;;;4.47;4.18;;;17.90;51.20;;;;;;5050469;28;20489;-64
2022/01/12 08:07:03;;;;;;;4.40;3.67;;;17.90;51.30;;;;;;5051359;28;20175;-64
2022/01/12 08:09:28;;;;;;;4.45;4.05;;;17.90;51.70;;;;;;5050795;28;20294;-68
2022/01/12 08:11:56;;;;;;;4.63;4.20;;;17.90;51.70;;;;;;5050386;28;20203;-68
2022/01/12 08:14:22;;;;;;;4.72;4.32;;;18.00;51.90;;;;;;5051081;28;20171;-63
2022/01/12 08:16:47;;;;;;;9.57;4.60;;;18.00;52.10;;;;;;5050981;28;20261;-62
2022/01/12 08:19:17;;;;;;;5.32;4.32;;;18.00;52.10;;;;;;5050128;28;20282;-66
2022/01/12 08:21:42;;;;;;;4.63;3.90;;;18.10;52.10;;;;;;5050832;28;20728;-66
2022/01/12 08:24:09;;;;;;;4.90;4.50;;;18.10;52.30;;;;;;5051168;28;20190;-64
2022/01/12 08:26:35;;;;;;;5.28;4.78;;;18.10;52.80;;;;;;5049550;28;20179;-65
2022/01/12 08:29:01;;;;;;;5.47;4.10;;;18.20;53.00;;;;;;5050588;28;20218;-65
2022/01/12 08:31:26;;;;;;;5.13;4.18;;;18.20;52.90;;;;;;5050606;28;20545;-66
2022/01/12 08:33:52;;;;;;;6.63;4.60;;;18.20;53.00;;;;;;5049705;28;20549;-67
2022/01/12 08:36:17;;;;;;;6.03;4.25;;;18.80;53.20;;;;;;5050693;28;20182;-67
2022/01/12 08:38:43;;;;;;;6.82;4.43;;;18.40;53.10;;;;;;5049702;28;20175;-66
2022/01/12 08:41:08;;;;;;;4.70;4.20;;;18.40;53.00;;;;;;5051233;28;20191;-67
2022/01/12 08:43:34;;;;;;;4.35;3.95;;;18.40;53.10;;;;;;5054990;28;20198;-66
2022/01/12 08:45:59;;;;;;;4.72;4.10;;;18.40;53.10;;;;;;5067484;28;20189;-67
2022/01/12 08:48:25;;;;;;;6.90;4.07;;;18.50;53.00;;;;;;5051920;28;20585;-66
2022/01/12 08:50:50;;;;;;;5.75;4.18;;;18.40;53.10;;;;;;5054089;28;20185;-67
2022/01/12 08:53:16;;;;;;;4.95;4.20;;;18.40;53.10;;;;;;5070469;28;20167;-67
2022/01/12 08:55:41;;;;;;;5.13;4.22;;;18.50;53.00;;;;;;5070552;28;20594;-67
2022/01/12 08:58:07;;;;;;;5.20;4.03;;;18.50;53.00;;;;;;5070637;28;20179;-67
2022/01/12 09:00:32;;;;;;;4.85;3.65;;;18.50;53.00;;;;;;5056951;28;20180;-66
2022/01/12 09:02:58;;;;;;;4.25;3.85;;;18.50;53.20;;;;;;5051112;28;20171;-67
2022/01/12 09:05:24;;;;;;;5.85;3.58;;;18.50;53.20;;;;;;5050794;28;20179;-65
2022/01/12 09:07:53;;;;;;;4.57;4.10;;;18.50;53.20;;;;;;5050458;28;20530;-65
2022/01/12 09:10:21;;;;;;;4.30;3.90;;;18.50;53.30;;;;;;5054323;28;20211;-66
2022/01/12 09:12:50;;;;;;;5.53;4.05;;;18.50;53.20;;;;;;5054605;28;20218;-65
2022/01/12 09:15:22;;;;;;;4.38;3.47;;;18.50;53.20;;;;;;5053833;28;20179;-65
2022/01/12 09:17:48;;;;;;;4.18;3.78;;;18.50;53.30;;;;;;5068547;28;20205;-65
2022/01/12 09:20:14;;;;;;;4.22;3.47;;;18.50;53.30;;;;;;5066773;28;20601;-64
2022/01/12 09:22:40;;;;;;;5.45;3.70;;;18.50;53.30;;;;;;5053401;28;20259;-66
2022/01/12 09:25:06;;;;;;;4.47;4.07;;;18.50;53.10;;;;;;5054368;28;20187;-63
2022/01/12 09:27:31;;;;;;;5.30;4.10;;;18.50;53.70;;;;;;5054234;28;20178;-64
2022/01/12 09:29:58;;;;;;;5.75;3.80;;;18.50;53.00;;;;;;5053733;28;20211;-66
2022/01/12 09:32:24;;;;;;;4.55;4.15;;;18.50;53.20;;;;;;5054151;28;20193;-63
2022/01/12 09:34:50;;;;;;;3.92;3.53;;;18.50;53.10;;;;;;5054098;28;20591;-64
2022/01/12 09:37:15;;;;;;;4.00;3.53;;;18.50;53.10;;;;;;5053294;28;20186;-66
2022/01/12 09:39:41;;;;;;;3.97;3.53;;;18.50;53.20;;;;;;5053822;28;20185;-67
2022/01/12 09:42:06;;;;;;;4.63;3.92;;;18.40;53.20;;;;;;5052422;28;20175;-67
2022/01/12 09:44:36;;;;;;;4.28;3.88;;;18.40;53.30;;;;;;5053780;28;20244;-67
2022/01/12 09:47:03;;;;;;;6.35;3.85;;;18.30;53.50;;;;;;5054074;28;20657;-65
2022/01/12 09:49:29;;;;;;;5.68;3.75;;;18.20;53.50;;;;;;5052433;28;20594;-67
2022/01/12 09:51:55;;;;;;;4.85;3.72;;;18.20;53.70;;;;;;5067881;28;20261;-68
2022/01/12 09:54:20;;;;;;;4.20;3.38;;;18.20;53.70;;;;;;5073653;28;20270;-67
2022/01/12 09:56:46;;;;;;;6.40;4.20;;;18.20;53.70;;;;;;5073281;28;20259;-67
2022/01/12 09:59:12;;;;;;;5.28;3.60;;;18.10;53.70;;;;;;5073801;28;20185;-69
2022/01/12 10:01:45;;;;;;;3.70;3.40;;;18.10;53.60;;;;;;5073235;28;20573;-69
2022/01/12 10:04:18;;;;;;;4.53;3.92;;;18.00;53.70;;;;;;5073221;28;20492;-67
2022/01/12 10:06:46;;;;;;;3.85;3.50;;;18.00;53.80;;;;;;5073732;28;20175;-66
2022/01/12 10:09:13;;;;;;;5.28;3.95;;;17.90;53.80;;;;;;5073884;28;20206;-66
2022/01/12 10:12:04;;;;;;;3.55;3.15;;;17.90;54.00;;;;;;5072725;28;20179;-66
2022/01/12 10:14:46;;;;;;;4.20;3.80;;;17.90;53.90;;;;;;5073291;28;20705;-67
2022/01/12 10:17:12;;;;;;;4.07;3.75;;;17.90;54.00;;;;;;5073187;28;20185;-66
2022/01/12 10:19:38;;;;;;;3.97;3.42;;;17.90;54.00;;;;;;5073092;28;20178;-66
2022/01/12 10:22:05;;;;;;;3.78;3.30;;;17.90;54.10;;;;;;5073594;28;20194;-66
2022/01/12 10:24:31;;;;;;;4.45;4.05;;;17.90;54.00;;;;;;5072500;28;20880;-65
2022/01/12 10:26:56;;;;;;;5.72;4.05;;;18.00;54.10;;;;;;5073303;28;20610;-67
2022/01/12 10:29:24;;;;;;;4.10;3.70;;;18.00;54.00;;;;;;5072985;28;20202;-67
2022/01/12 10:31:59;;;;;;;3.60;3.30;;;18.00;53.90;;;;;;5072861;28;20502;-67
2022/01/12 10:34:30;;;;;;;3.42;3.13;;;18.00;53.90;;;;;;5072854;28;20675;-66
2022/01/12 10:36:56;;;;;;;3.53;3.13;;;18.00;53.90;;;;;;5073145;28;20182;-67
2022/01/12 10:39:26;;;;;;;4.32;3.47;;;18.00;53.80;;;;;;5071376;28;20242;-66
2022/01/12 10:42:04;;;;;;;4.55;3.65;;;17.90;53.80;;;;;;5072722;28;20170;-67
2022/01/12 10:44:38;;;;;;;4.30;3.30;;;17.90;53.90;;;;;;5072468;28;20224;-66
2022/01/12 10:47:13;;;;;;;5.20;3.83;;;17.90;54.10;;;;;;5072405;28;20258;-66
2022/01/12 10:49:41;;;;;;;4.88;3.50;;;17.90;54.10;;;;;;5072724;28;20641;-67
2022/01/12 10:52:11;;;;;;;4.00;3.67;;;17.90;54.10;;;;;;5057442;28;20232;-68
2022/01/12 10:54:50;;;;;;;4.57;3.30;;;17.90;54.10;;;;;;5052577;28;20183;-67
2022/01/12 10:57:30;;;;;;;3.72;3.35;;;17.90;54.10;;;;;;5052951;28;20175;-68
2022/01/12 11:00:08;;;;;;;4.43;2.67;;;18.00;54.00;;;;;;5051921;28;20272;-68
2022/01/12 11:02:34;;;;;;;3.45;3.13;;;18.00;54.00;;;;;;5052320;28;20175;-68
2022/01/12 11:05:00;;;;;;;4.22;3.17;;;18.00;53.90;;;;;;5052687;28;20179;-67
2022/01/12 11:07:26;;;;;;;3.95;3.35;;;18.00;53.80;;;;;;5051652;28;20186;-67
2022/01/12 11:09:54;;;;;;;4.05;3.60;;;18.00;53.80;;;;;;5052368;28;20210;-67
2022/01/12 11:12:19;;;;;;;3.83;2.92;;;18.00;53.90;;;;;;5050764;28;20250;-67
2022/01/12 11:14:45;;;;;;;3.72;3.38;;;18.00;53.80;;;;;;5050241;28;20582;-66
2022/01/12 11:17:10;;;;;;;3.47;3.17;;;17.90;53.90;;;;;;5050922;28;20761;-63
2022/01/12 11:19:36;;;;;;;4.50;3.38;;;17.80;54.00;;;;;;5051909;28;20208;-64
2022/01/12 11:22:21;;;;;;;4.68;3.17;;;17.90;54.10;;;;;;5050245;28;20163;-67
2022/01/12 11:24:46;;;;;;;3.88;3.05;;;17.90;54.10;;;;;;5035133;28;20183;-62
2022/01/12 11:27:19;;;;;;;3.97;3.08;;;18.00;54.10;;;;;;5052049;28;20699;-63
2022/01/12 11:29:45;;;;;;;4.35;2.97;;;18.10;54.00;;;;;;5051269;28;20236;-63
2022/01/12 11:32:13;;;;;;;3.13;2.92;;;18.20;53.80;;;;;;5051164;28;20599;-63
2022/01/12 11:34:40;;;;;;;3.88;2.72;;;18.20;53.50;;;;;;5050936;28;20351;-63
2022/01/12 11:37:16;;;;;;;3.25;2.78;;;18.40;53.40;;;;;;5051953;28;20186;-63
2022/01/12 11:39:42;;;;;;;3.85;2.97;;;18.50;53.20;;;;;;5051708;28;20183;-64
2022/01/12 11:42:08;;;;;;;3.45;2.58;;;18.60;53.00;;;;;;5051241;28;20558;-64
2022/01/12 11:44:35;;;;;;;4.20;2.58;;;18.70;53.00;;;;;;5050122;28;20179;-62
2022/01/12 11:47:02;;;;;;;3.95;3.00;;;18.70;52.80;;;;;;5051896;28;20510;-62
2022/01/12 11:49:31;;;;;;;5.65;2.90;;;18.90;52.80;;;;;;5050395;28;20284;-63
2022/01/12 11:51:59;;;;;;;4.28;2.88;;;18.90;52.70;;;;;;5066099;28;20194;-63
2022/01/12 11:54:32;;;;;;;2.90;2.70;;;19.00;52.70;;;;;;5071531;28;20257;-63
2022/01/12 11:57:00;;;;;;;4.50;2.40;;;19.00;52.60;;;;;;5071044;28;20259;-69
2022/01/12 11:59:27;;;;;;;2.97;2.67;;;19.00;52.60;;;;;;5071257;28;20617;-61
2022/01/12 12:02:07;;;;;;;3.85;2.67;;;19.00;52.70;;;;;;5071744;28;20182;-64
2022/01/12 12:04:33;;;;;;;5.22;2.60;;;19.00;52.70;;;;;;5070858;28;20166;-65
2022/01/12 12:07:07;;;;;;;4.25;2.85;;;19.00;52.60;;;;;;5071552;28;20286;-64
2022/01/12 12:09:43;;;;;;;4.93;2.58;;;19.00;52.60;;;;;;5071194;28;20214;-64
2022/01/12 12:12:14;;;;;;;8.60;2.75;;;19.10;52.70;;;;;;5071880;28;20198;-63
2022/01/12 12:14:40;;;;;;;4.50;3.05;;;19.00;52.70;;;;;;5071300;28;20675;-64
2022/01/12 12:17:06;;;;;;;3.15;2.20;;;19.10;52.70;;;;;;5070943;28;20175;-64
2022/01/12 12:19:35;;;;;;;6.43;2.97;;;19.10;52.60;;;;;;5069883;28;20171;-62
2022/01/12 12:22:07;;;;;;;4.03;2.60;;;19.00;52.50;;;;;;5070606;28;20529;-65
2022/01/12 12:24:33;;;;;;;3.08;2.75;;;19.00;52.60;;;;;;5070539;28;20248;-64
2022/01/12 12:26:58;;;;;;;4.15;2.60;;;18.90;52.60;;;;;;5071395;28;20633;-65
2022/01/12 12:29:27;;;;;;;3.40;2.60;;;18.90;52.80;;;;;;5070072;28;20210;-69
2022/01/12 12:31:53;;;;;;;3.13;2.80;;;18.80;53.00;;;;;;5071065;28;20580;-66
2022/01/12 12:34:22;;;;;;;2.75;2.50;;;18.80;52.90;;;;;;5071237;28;20171;-67
2022/01/12 12:36:58;;;;;;;4.18;2.63;;;18.80;52.90;;;;;;5071841;28;20198;-65
2022/01/12 12:39:24;;;;;;;6.50;2.60;;;18.80;53.00;;;;;;5070448;28;20708;-66
2022/01/12 12:41:50;;;;;;;3.50;2.53;;;18.80;53.00;;;;;;5072178;28;20291;-67
2022/01/12 12:44:26;;;;;;;4.22;2.63;;;18.80;53.10;;;;;;5075268;28;20182;-64
2022/01/12 12:47:04;;;;;;;6.85;3.25;;;18.70;53.10;;;;;;5074269;28;20219;-64
2022/01/12 12:49:29;;;;;;;3.00;2.70;;;18.70;53.10;;;;;;5074407;28;20234;-64
2022/01/12 12:52:01;;;;;;;4.68;2.35;;;18.60;53.30;;;;;;5060005;28;20248;-65
2022/01/12 12:54:29;;;;;;;5.38;2.90;;;18.60;53.20;;;;;;5054551;28;20194;-65
2022/01/12 12:57:06;;;;;;;5.20;2.42;;;18.50;53.30;;;;;;5053935;28;20540;-64
2022/01/12 12:59:32;;;;;;;3.97;2.78;;;18.50;53.40;;;;;;5045810;28;20186;-65
2022/01/12 13:01:58;;;;;;;4.32;2.80;;;18.60;53.40;;;;;;5054999;28;20254;-65
2022/01/12 13:04:23;;;;;;;4.63;3.03;;;18.60;53.40;;;;;;5054587;28;20266;-64
2022/01/12 13:06:49;;;;;;;4.25;2.92;;;18.60;53.40;;;;;;5054029;28;20274;-60
2022/01/12 13:09:16;;;;;;;7.03;2.92;;;18.60;53.30;;;;;;5054673;28;20217;-61
2022/01/12 13:11:46;;;;;;;6.25;3.53;;;18.50;53.30;;;;;;5052904;28;20225;-60
2022/01/12 13:14:14;;;;;;;4.13;2.53;;;18.50;53.30;;;;;;5054102;28;20183;-61
2022/01/12 13:16:43;;;;;;;4.22;2.70;;;18.40;53.30;;;;;;5054151;28;20671;-60
2022/01/12 13:19:21;;;;;;;3.95;3.13;;;18.40;53.40;;;;;;5054552;28;20179;-61
2022/01/12 13:21:47;;;;;;;4.25;3.00;;;18.40;53.40;;;;;;5053668;28;20543;-61
2022/01/12 13:24:12;;;;;;;6.35;3.08;;;18.30;53.60;;;;;;5054283;28;20258;-61
2022/01/12 13:26:38;;;;;;;3.60;2.80;;;18.30;53.70;;;;;;5054229;28;20179;-62
2022/01/12 13:29:05;;;;;;;4.70;2.67;;;18.30;53.60;;;;;;5052438;28;20207;-62
2022/01/12 13:31:31;;;;;;;4.38;3.10;;;18.30;53.70;;;;;;5054045;28;20602;-62
2022/01/12 13:33:58;;;;;;;4.97;3.00;;;18.30;53.70;;;;;;5054189;28;20685;-62
2022/01/12 13:36:25;;;;;;;2.95;2.50;;;18.30;53.70;;;;;;5052952;28;20660;-62
2022/01/12 13:38:55;;;;;;;3.00;2.67;;;18.30;53.70;;;;;;5053899;28;20179;-62
2022/01/12 13:41:27;;;;;;;5.18;2.80;;;18.40;53.70;;;;;;5053190;28;20179;-62
2022/01/12 13:44:08;;;;;;;3.40;2.78;;;18.40;53.70;;;;;;5053918;28;20573;-62
2022/01/12 13:47:12;;;;;;;5.20;3.47;;;18.40;53.60;;;;;;5054016;28;20167;-62
2022/01/12 13:49:37;;;;;;;4.15;3.10;;;18.40;53.60;;;;;;5051574;28;20677;-62
2022/01/12 13:52:07;;;;;;;4.30;3.08;;;18.40;53.50;;;;;;5069072;28;20178;-63
2022/01/12 13:54:37;;;;;;;3.88;2.97;;;18.40;53.60;;;;;;5072919;28;20175;-63
2022/01/12 13:57:03;;;;;;;3.50;2.55;;;18.50;53.50;;;;;;5073213;28;20178;-63
2022/01/12 13:59:30;;;;;;;4.18;2.95;;;18.50;53.50;;;;;;5073306;28;20197;-62
2022/01/12 14:01:57;;;;;;;4.40;2.92;;;18.50;53.40;;;;;;5072444;28;20187;-63
2022/01/12 14:04:35;;;;;;;4.63;3.28;;;18.50;53.40;;;;;;5071208;28;20182;-62
2022/01/12 14:07:03;;;;;;;3.42;2.53;;;18.60;53.30;;;;;;5053817;28;20269;-61
2022/01/12 14:11:54;;;;;;;4.07;2.72;;;18.60;53.40;;;;;;5053766;28;20184;-61
2022/01/12 14:14:21;;;;;;;3.58;3.10;;;18.60;53.40;;;;;;5053026;28;20175;-62